Aurora, Ohio
Current Conditions -  °F | °C
As of 8:00 PM on Wednesday 17 Dec 2014 (Local Time) from KPOV Reporting Station
Light Snow Light Snow  
Wind Chill: 19°   Ceiling: 2000
Heat Index: 29°   Visibility: 10mi
Dew Point: 21°   Wind: 13mph
Humidity: 72%   Direction: 280°W
Pressure: 30.11"   Gusts: 20mph
Location:  41.31°N, 81.34°W
Report Text: KPOV 180100Z AUTO 28011G17KT 10SM -SN OVC020 M02/M06 A3011 RMK AO2 T10161061
Loading
Personal Weather Stations






























Interactive Weather Map New forecast layout! Learn more

10-Day Weather Forecast

Advertisements
Track Severe Weather on mobile